Time;durP1;ratioP1;P1;durP2;ratioP2;P2;SDS_P1;SDS_P2;PMS_P1;PMS_P2;Temp;Humidity;BMP_temperature;BMP_pressure;BME280_temperature;BME280_humidity;BME280_pressure;Samples;Min_cycle;Max_cycle;Signal;HPM_P1;HPM_P2
2023/04/13 00:06:09;;;;;;;6.18;3.13;;;;;;;23.80;35.40;100928.94;20905825;28;20053;-69
2023/04/13 00:16:13;;;;;;;4.13;2.30;;;;;;;23.75;35.32;100923.41;20906275;28;20042;-68
2023/04/13 00:26:15;;;;;;;5.85;2.83;;;;;;;23.78;34.67;100936.78;20904980;28;20041;-69
2023/04/13 00:36:20;;;;;;;4.03;2.30;;;;;;;23.89;34.88;100959.00;20888714;28;20037;-69
2023/04/13 00:46:22;;;;;;;7.40;2.90;;;;;;;23.88;34.55;100969.34;20907449;28;20103;-69
2023/04/13 00:56:26;;;;;;;5.28;3.30;;;;;;;23.76;34.72;100947.41;20910441;28;20103;-70
2023/04/13 01:06:43;;;;;;;5.78;3.17;;;;;;;23.93;34.71;100988.00;20913469;28;20029;-69
2023/04/13 01:17:01;;;;;;;18.10;4.00;;;;;;;23.94;34.99;100995.25;20923513;28;20102;-69
2023/04/13 01:27:19;;;;;;;5.53;3.17;;;;;;;23.97;34.65;101008.63;20917124;28;20496;-70
2023/04/13 01:37:24;;;;;;;9.17;3.53;;;;;;;24.00;34.62;101005.22;20896743;28;20134;-69
2023/04/13 01:47:26;;;;;;;6.88;3.30;;;;;;;23.91;34.98;100993.06;20906199;28;20290;-71
2023/04/13 01:57:30;;;;;;;5.15;3.45;;;;;;;23.87;34.55;100989.19;20911641;28;20049;-70
2023/04/13 02:07:32;;;;;;;4.47;3.50;;;;;;;23.91;34.81;100990.25;20901576;28;20060;-71
2023/04/13 02:17:33;;;;;;;6.30;3.47;;;;;;;24.10;34.94;101021.88;20929129;28;20041;-71
2023/04/13 02:27:34;;;;;;;14.68;3.50;;;;;;;24.01;35.23;101013.34;20905291;28;20053;-72
2023/04/13 02:37:40;;;;;;;7.85;3.22;;;;;;;24.04;34.96;101006.28;20912277;28;20048;-71
2023/04/13 02:47:41;;;;;;;5.78;2.75;;;;;;;24.14;34.96;101022.91;20901303;28;20095;-70
2023/04/13 02:57:43;;;;;;;4.15;2.92;;;;;;;24.15;35.15;101024.59;20870756;28;20554;-70
2023/04/13 03:07:44;;;;;;;7.50;3.67;;;;;;;24.16;34.88;101014.25;20901867;28;20033;-71
2023/04/13 03:17:46;;;;;;;5.28;3.30;;;;;;;23.97;35.01;101001.09;20963558;28;20036;-71
2023/04/13 03:27:47;;;;;;;5.50;3.35;;;;;;;24.05;35.44;101007.94;20904008;28;20029;-71
2023/04/13 03:37:49;;;;;;;4.25;3.58;;;;;;;24.03;35.16;101018.63;20905632;28;20045;-71
2023/04/13 03:47:53;;;;;;;4.72;3.15;;;;;;;24.05;35.55;101030.31;20896884;28;20562;-71
2023/04/13 03:57:55;;;;;;;6.15;3.70;;;;;;;23.99;35.58;101025.94;20925866;28;20052;-72
2023/04/13 04:07:56;;;;;;;6.97;3.97;;;;;;;24.02;35.66;101033.72;20897831;28;20045;-72
2023/04/13 04:18:00;;;;;;;3.45;2.70;;;;;;;24.05;35.96;101047.94;20890652;28;20075;-73
2023/04/13 04:28:05;;;;;;;7.30;3.72;;;;;;;23.74;35.93;101011.16;20917178;28;20033;-71
2023/04/13 04:38:07;;;;;;;4.07;3.47;;;;;;;24.06;36.07;101063.56;20906225;28;20076;-72
2023/04/13 04:48:12;;;;;;;4.75;3.40;;;;;;;24.00;35.69;101044.34;20924467;28;20049;-72
2023/04/13 04:58:14;;;;;;;4.63;3.00;;;;;;;23.96;35.65;101032.97;20917301;28;20563;-71
2023/04/13 05:08:15;;;;;;;3.15;2.75;;;;;;;24.16;35.55;101070.16;20912420;28;20036;-73
2023/04/13 05:18:17;;;;;;;4.57;2.63;;;;;;;24.10;35.58;101063.81;20905405;28;20049;-71
2023/04/13 05:28:20;;;;;;;5.25;3.10;;;;;;;24.04;35.63;101057.44;20962353;28;20049;-72
2023/04/13 05:38:22;;;;;;;4.75;3.00;;;;;;;24.10;35.73;101066.63;20902247;28;20041;-72
2023/04/13 05:48:24;;;;;;;4.68;3.25;;;;;;;24.11;35.76;101085.03;20920419;28;20037;-71
2023/04/13 05:58:25;;;;;;;3.88;2.95;;;;;;;24.14;35.99;101084.44;20913223;28;20075;-72
2023/04/13 06:08:31;;;;;;;5.63;3.03;;;;;;;24.13;36.01;101081.94;20877559;28;20045;-72
2023/04/13 06:18:36;;;;;;;6.22;2.70;;;;;;;24.01;36.06;101074.00;20852162;28;20076;-71
2023/04/13 06:28:37;;;;;;;6.38;2.92;;;;;;;23.95;35.95;101058.41;20882505;28;20079;-71
2023/04/13 06:38:38;;;;;;;3.53;3.20;;;;;;;23.96;35.79;101082.41;20914689;28;20048;-71
2023/04/13 06:48:40;;;;;;;4.00;2.70;;;;;;;24.17;35.64;101119.34;20954998;28;20101;-71
2023/04/13 06:58:41;;;;;;;4.93;2.80;;;;;;;24.14;35.69;101105.97;20995273;28;20196;-70
2023/04/13 07:08:43;;;;;;;3.60;2.80;;;;;;;24.06;36.12;101108.31;20943197;28;20033;-71
2023/04/13 07:18:44;;;;;;;3.70;2.70;;;;;;;24.15;35.78;101124.44;20913053;28;20045;-72
2023/04/13 07:28:46;;;;;;;3.88;2.97;;;;;;;23.96;35.73;101096.41;20962999;28;20037;-72
2023/04/13 07:38:49;;;;;;;3.95;3.17;;;;;;;24.15;36.10;101119.66;20959230;28;20849;-72
2023/04/13 07:48:56;;;;;;;3.85;3.25;;;;;;;24.04;35.91;101098.53;20909623;28;20806;-71
2023/04/13 07:59:00;;;;;;;4.63;2.70;;;;;;;24.14;36.04;101112.38;20910933;28;20045;-72
2023/04/13 08:09:01;;;;;;;3.72;2.58;;;;;;;24.06;36.14;101111.09;20924420;28;20443;-72
2023/04/13 08:19:03;;;;;;;3.75;2.83;;;;;;;24.15;36.06;101144.84;20925835;28;20041;-71
2023/04/13 08:29:07;;;;;;;3.67;2.67;;;;;;;24.08;36.10;101145.16;20924243;28;20049;-72
2023/04/13 08:39:09;;;;;;;3.38;2.58;;;;;;;24.13;36.07;101158.25;20917857;28;20094;-72
2023/04/13 08:49:12;;;;;;;5.00;2.80;;;;;;;24.09;35.75;101154.38;20937793;28;20040;-72
2023/04/13 08:59:15;;;;;;;3.83;2.47;;;;;;;24.05;35.93;101147.72;20871707;28;20037;-72
2023/04/13 09:09:19;;;;;;;6.10;2.75;;;;;;;24.13;36.22;101163.03;20894868;28;20440;-72
2023/04/13 09:19:33;;;;;;;4.63;2.90;;;;;;;24.02;35.96;101154.75;20838145;28;20048;-72
2023/04/13 09:29:48;;;;;;;2.90;2.60;;;;;;;24.13;36.04;101177.81;20911355;28;20045;-71
2023/04/13 09:39:50;;;;;;;4.60;2.50;;;;;;;23.34;35.88;101063.53;20919419;28;20067;-72
2023/04/13 09:49:55;;;;;;;4.30;2.70;;;;;;;23.71;35.93;101136.66;20904845;28;20036;-70
2023/04/13 09:59:59;;;;;;;2.80;2.50;;;;;;;24.15;35.99;101220.31;20895935;28;20418;-72
2023/04/13 10:10:01;;;;;;;4.03;2.47;;;;;;;24.14;35.98;101235.41;20912491;28;20037;-70
2023/04/13 10:20:09;;;;;;;3.08;2.55;;;;;;;24.12;36.11;101225.66;20938530;28;20080;-71
2023/04/13 10:30:16;;;;;;;;;;;;;;;24.13;36.31;101239.34;20911985;28;20106;-71
2023/04/13 10:40:18;;;;;;;2.83;2.50;;;;;;;24.13;35.72;101244.09;20895338;28;19917;-72
2023/04/13 10:50:21;;;;;;;4.75;2.80;;;;;;;24.06;37.08;101238.88;20911856;28;20049;-71
2023/04/13 11:00:29;;;;;;;6.78;2.85;;;;;;;24.02;37.47;101238.63;20912472;28;20037;-69
2023/04/13 11:10:31;;;;;;;17.08;3.53;;;;;;;24.18;37.76;101275.63;20906568;28;20125;-69
2023/04/13 11:20:38;;;;;;;12.30;3.28;;;;;;;24.00;37.47;101251.22;20910889;28;20049;-69
2023/04/13 11:30:40;;;;;;;9.83;4.60;;;;;;;24.05;37.82;101260.41;20908820;28;20111;-69
2023/04/13 11:40:44;;;;;;;9.05;3.88;;;;;;;24.23;37.83;101297.94;20909578;28;20041;-69
2023/04/13 11:50:45;;;;;;;9.20;4.72;;;;;;;24.18;37.68;101303.59;20904143;28;20048;-70
2023/04/13 12:00:47;;;;;;;9.20;3.85;;;;;;;24.16;37.50;101305.03;20908935;28;20037;-70
2023/04/13 12:10:59;;;;;;;7.32;3.33;;;;;;;24.16;37.51;101310.63;20908925;28;20029;-70
2023/04/13 12:21:03;;;;;;;7.85;3.40;;;;;;;24.16;37.29;101311.47;20908156;28;20041;-71
2023/04/13 12:31:11;;;;;;;5.35;3.47;;;;;;;24.14;37.52;101310.91;20907905;28;20484;-70
2023/04/13 12:41:12;;;;;;;12.57;3.93;;;;;;;24.17;37.37;101301.94;20907634;28;20045;-71
2023/04/13 12:51:13;;;;;;;10.40;3.72;;;;;;;24.04;37.46;101291.44;20914801;28;20041;-71
2023/04/13 13:01:15;;;;;;;8.38;3.28;;;;;;;24.09;36.99;101278.22;20921618;28;20037;-71
2023/04/13 13:11:22;;;;;;;4.72;3.60;;;;;;;24.19;37.42;101293.25;20922508;28;20159;-70
2023/04/13 13:21:23;;;;;;;7.53;3.37;;;;;;;24.08;36.84;101264.56;20920515;28;20549;-70
2023/04/13 13:31:26;;;;;;;6.72;3.33;;;;;;;24.25;36.94;101276.13;20920036;28;20394;-70
2023/04/13 13:41:27;;;;;;;5.25;2.97;;;;;;;24.29;36.63;101273.59;20917103;28;20041;-70
2023/04/13 13:51:31;;;;;;;3.80;3.00;;;;;;;24.12;36.67;101240.47;20918819;28;20468;-70
2023/04/13 14:01:32;;;;;;;3.92;2.67;;;;;;;24.33;36.35;101277.47;20916830;28;20041;-70
2023/04/13 14:11:35;;;;;;;5.07;2.75;;;;;;;24.32;35.94;101271.00;20916850;28;20045;-71
2023/04/13 14:21:36;;;;;;;6.18;3.00;;;;;;;24.38;35.76;101259.81;20916160;28;20565;-71
2023/04/13 14:31:37;;;;;;;4.65;3.10;;;;;;;24.34;34.76;101240.78;20897122;28;20488;-71
2023/04/13 14:41:41;;;;;;;5.68;3.15;;;;;;;24.11;34.16;101205.25;20913373;28;20033;-71
2023/04/13 14:51:43;;;;;;;3.22;2.72;;;;;;;24.31;34.37;101240.53;20913391;28;20488;-70
2023/04/13 15:01:44;;;;;;;5.05;2.90;;;;;;;24.36;34.57;101237.69;20921509;28;20056;-70
2023/04/13 15:11:49;;;;;;;5.30;3.10;;;;;;;24.35;34.03;101224.84;20851305;28;20045;-72
2023/04/13 15:21:50;;;;;;;4.15;2.72;;;;;;;24.41;34.44;101228.44;20907179;28;20341;-71
2023/04/13 15:31:52;;;;;;;4.15;3.00;;;;;;;24.40;34.56;101215.59;20911029;28;20518;-71
2023/04/13 15:41:54;;;;;;;6.18;2.85;;;;;;;24.34;34.63;101210.03;20910840;28;20071;-70
2023/04/13 15:51:55;;;;;;;4.28;2.65;;;;;;;24.44;34.59;101202.69;20909834;28;20052;-70
2023/04/13 16:01:56;;;;;;;6.05;2.80;;;;;;;24.42;34.35;101199.31;20909784;28;20480;-71
2023/04/13 16:12:01;;;;;;;6.43;3.03;;;;;;;24.50;34.45;101185.50;20909660;28;20064;-71
2023/04/13 16:22:09;;;;;;;5.25;2.65;;;;;;;24.51;34.42;101172.34;20911989;28;20444;-71
2023/04/13 16:32:10;;;;;;;4.93;2.97;;;;;;;24.52;34.17;101143.28;20925371;28;20040;-70
2023/04/13 16:42:12;;;;;;;3.15;2.50;;;;;;;24.39;34.44;101124.41;20924137;28;20033;-70
2023/04/13 16:52:13;;;;;;;5.07;3.05;;;;;;;24.57;34.41;101143.19;20917501;28;20549;-70
2023/04/13 17:02:15;;;;;;;3.47;2.78;;;;;;;24.58;34.49;101125.28;20922497;28;20095;-70
2023/04/13 17:12:16;;;;;;;4.22;3.05;;;;;;;24.45;34.57;101089.66;20921644;28;20480;-71
2023/04/13 17:22:18;;;;;;;3.13;2.80;;;;;;;24.46;34.33;101080.13;20921241;28;20075;-71
2023/04/13 17:32:20;;;;;;;3.08;2.53;;;;;;;24.45;34.03;101056.09;20919559;28;20561;-70
2023/04/13 17:42:21;;;;;;;5.80;3.10;;;;;;;24.22;34.39;101010.25;20984406;28;20032;-69
2023/04/13 17:52:23;;;;;;;5.13;3.45;;;;;;;24.65;33.93;101083.78;20999245;28;20048;-70
2023/04/13 18:02:24;;;;;;;5.10;3.08;;;;;;;24.70;34.28;101069.69;21000785;28;20052;-70
2023/04/13 18:12:26;;;;;;;4.30;2.90;;;;;;;24.70;34.12;101063.28;20999984;28;20415;-70
2023/04/13 18:22:27;;;;;;;3.63;2.80;;;;;;;24.62;34.04;101025.59;20998820;28;20041;-71
2023/04/13 18:32:29;;;;;;;2.88;2.58;;;;;;;24.74;33.92;101037.16;20997815;28;20106;-70
2023/04/13 18:42:33;;;;;;;4.72;3.00;;;;;;;24.84;33.87;101037.00;20997045;28;20036;-71
2023/04/13 18:52:34;;;;;;;5.18;2.75;;;;;;;24.55;33.84;100966.41;20996710;28;20078;-70
2023/04/13 19:02:36;;;;;;;3.08;2.67;;;;;;;24.89;33.94;101022.09;20994744;28;20040;-70
2023/04/13 19:12:37;;;;;;;4.25;2.40;;;;;;;24.43;34.07;100924.09;20994919;28;20384;-70
2023/04/13 19:22:39;;;;;;;9.43;3.53;;;;;;;24.95;33.64;101011.63;20993879;28;20114;-70
2023/04/13 19:32:42;;;;;;;3.45;2.65;;;;;;;24.79;33.89;100967.13;20993628;28;20052;-70
2023/04/13 19:42:45;;;;;;;3.17;2.65;;;;;;;24.99;34.03;100976.28;20993974;28;20086;-69
2023/04/13 19:52:46;;;;;;;3.92;2.53;;;;;;;24.88;34.27;100946.78;20993775;28;20040;-69
2023/04/13 20:02:49;;;;;;;4.20;2.85;;;;;;;24.90;34.06;100927.75;20995989;28;20029;-70
2023/04/13 20:12:51;;;;;;;3.22;2.53;;;;;;;24.73;34.40;100889.97;20992121;28;20044;-70
2023/04/13 20:22:52;;;;;;;4.40;2.75;;;;;;;25.06;34.03;100926.28;20992290;28;20113;-71
2023/04/13 20:32:54;;;;;;;4.13;2.72;;;;;;;25.05;34.08;100925.47;20991345;28;20037;-70
2023/04/13 20:42:57;;;;;;;7.15;2.75;;;;;;;25.10;34.25;100905.78;20990754;28;20067;-70
2023/04/13 20:52:59;;;;;;;3.40;2.70;;;;;;;24.94;34.01;100872.81;20990346;28;20106;-71
2023/04/13 21:03:02;;;;;;;3.92;2.70;;;;;;;24.90;34.45;100864.19;20990026;28;20127;-70
2023/04/13 21:13:09;;;;;;;4.55;2.78;;;;;;;25.11;34.01;100884.25;20997955;28;20480;-70
2023/04/13 21:23:10;;;;;;;2.60;2.40;;;;;;;25.09;34.26;100887.34;21002948;28;20040;-71
2023/04/13 21:33:12;;;;;;;2.67;2.13;;;;;;;25.13;34.27;100887.56;21013340;28;20062;-71
2023/04/13 21:43:13;;;;;;;3.95;2.80;;;;;;;25.07;34.79;100883.19;21037014;28;20024;-71
2023/04/13 21:53:14;;;;;;;8.27;2.65;;;;;;;25.17;34.69;100888.59;21039823;28;20078;-71
2023/04/13 22:03:18;;;;;;;6.55;3.10;;;;;;;25.24;34.68;100893.78;21081957;28;20074;-71
2023/04/13 22:13:20;;;;;;;3.75;2.70;;;;;;;25.20;34.92;100904.78;21081607;28;20052;-71
2023/04/13 22:23:21;;;;;;;5.10;2.97;;;;;;;25.08;34.76;100879.28;21035822;28;20041;-72
2023/04/13 22:33:22;;;;;;;3.85;2.92;;;;;;;25.27;34.50;100926.78;20998251;28;20036;-69
2023/04/13 22:43:24;;;;;;;4.07;3.00;;;;;;;25.20;34.85;100913.19;20997858;28;20106;-71
2023/04/13 22:53:26;;;;;;;4.50;3.75;;;;;;;25.29;34.56;100930.94;21019217;28;20040;-71
2023/04/13 23:03:30;;;;;;;6.05;3.50;;;;;;;25.31;34.27;100939.84;21058494;28;20029;-70
2023/04/13 23:13:32;;;;;;;4.47;3.22;;;;;;;25.18;34.64;100923.84;20994906;28;20479;-71
2023/04/13 23:23:33;;;;;;;4.82;2.90;;;;;;;24.88;34.36;100868.44;20994324;28;20051;-71
2023/04/13 23:33:34;;;;;;;3.83;3.28;;;;;;;25.31;34.43;100951.03;20992983;28;20085;-71
2023/04/13 23:43:38;;;;;;;4.45;3.47;;;;;;;25.23;34.46;100948.97;20991888;28;20024;-71
2023/04/13 23:53:40;;;;;;;3.50;2.90;;;;;;;25.34;34.41;100972.00;20980868;28;20044;-70
